Time;durP1;ratioP1;P1;durP2;ratioP2;P2;SDS_P1;SDS_P2;PMS_P1;PMS_P2;Temp;Humidity;BMP_temperature;BMP_pressure;BME280_temperature;BME280_humidity;BME280_pressure;Samples;Min_cycle;Max_cycle;Signal;HPM_P1;HPM_P2
2021/01/31 04:16:11;;;;;;;34.67;21.42;;;;;;;1.52;74.83;99121.44;5291265;26;20556;-86
2021/01/31 04:18:38;;;;;;;36.10;19.62;;;;;;;1.09;76.02;99119.25;5299512;27;20210;-84
2021/01/31 04:21:04;;;;;;;37.42;20.83;;;;;;;0.90;76.44;99118.16;5301479;27;20089;-85
2021/01/31 04:23:31;;;;;;;35.17;20.17;;;;;;;0.38;78.52;99125.22;5281663;27;20117;-84
2021/01/31 05:43:26;;;;;;;39.50;22.55;;;;;;;1.23;76.25;99198.75;5273423;26;20072;-85
2021/01/31 05:46:14;;;;;;;44.25;25.15;;;;;;;1.04;77.17;99198.53;5279136;27;20732;-85
2021/01/31 05:48:41;;;;;;;42.92;25.42;;;;;;;1.05;76.92;99194.22;5280440;27;20072;-85
2021/01/31 05:51:15;;;;;;;45.72;25.92;;;;;;;0.98;77.07;99195.84;5280679;27;20101;-86
2021/01/31 05:53:42;;;;;;;42.13;24.95;;;;;;;0.84;77.95;99194.78;5281595;27;20058;-85
2021/01/31 05:56:27;;;;;;;47.28;25.05;;;;;;;0.90;77.04;99200.03;5281719;27;20105;-84
2021/01/31 05:59:02;;;;;;;43.08;24.37;;;;;;;0.80;77.43;99203.38;5279830;27;20121;-84
2021/01/31 06:24:03;;;;;;;42.40;24.27;;;;;;;1.04;76.42;99203.69;5274624;27;20037;-85
2021/01/31 06:26:39;;;;;;;41.92;24.10;;;;;;;0.75;77.29;99207.59;5280053;27;20069;-85
2021/01/31 06:29:17;;;;;;;44.22;23.60;;;;;;;0.90;77.24;99205.22;5280108;27;20063;-85
2021/01/31 07:24:17;;;;;;;46.45;26.00;;;;;;;1.38;74.78;99292.09;5303407;27;20065;-85
2021/01/31 07:27:08;;;;;;;40.35;23.30;;;;;;;1.34;74.69;99291.19;5303399;27;20052;-86
2021/01/31 07:29:43;;;;;;;44.95;27.20;;;;;;;1.37;74.03;99306.75;5303448;27;20433;-86
2021/01/31 08:23:23;;;;;;;59.30;38.60;;;;;;;3.13;69.83;99291.25;5276102;27;20065;-83
2021/01/31 08:26:05;;;;;;;51.65;33.60;;;;;;;3.39;69.15;99294.88;5261814;27;20439;-83
2021/01/31 08:28:37;;;;;;;53.90;33.47;;;;;;;3.71;67.69;99291.56;5280624;27;20109;-84
2021/01/31 09:23:27;;;;;;;29.33;19.67;;;;;;;1.90;73.08;99344.56;5275462;26;20027;-85
2021/01/31 09:26:13;;;;;;;36.75;24.00;;;;;;;2.65;70.00;99349.69;5283202;27;20061;-88
2021/01/31 09:29:00;;;;;;;46.75;29.05;;;;;;;3.19;67.92;99351.84;5281967;27;20066;-86
2021/01/31 09:31:29;;;;;;;30.77;17.50;;;;;;;2.69;69.42;99372.19;5280378;27;20116;-86
2021/01/31 09:34:00;;;;;;;25.77;16.02;;;;;;;1.79;70.75;99369.44;5284127;27;20196;-84
2021/01/31 09:36:34;;;;;;;22.83;12.93;;;;;;;2.27;70.95;99366.59;5281218;27;20080;-85
2021/01/31 09:39:05;;;;;;;27.52;16.20;;;;;;;2.43;68.77;99349.47;5280818;27;20144;-84
2021/01/31 09:41:33;;;;;;;33.35;21.45;;;;;;;2.24;69.52;99350.16;5280839;27;20074;-85
2021/01/31 09:44:04;;;;;;;30.02;18.80;;;;;;;1.54;70.00;99363.94;5281157;27;20180;-85
2021/01/31 09:46:32;;;;;;;33.78;20.90;;;;;;;1.36;71.24;99369.75;5279772;27;20050;-84
2021/01/31 09:49:09;;;;;;;28.83;17.58;;;;;;;1.59;70.20;99375.25;5279990;27;20088;-86
2021/01/31 09:51:36;;;;;;;40.67;22.83;;;;;;;1.27;71.60;99379.09;5279010;27;20070;-86
2021/01/31 09:54:18;;;;;;;44.30;25.30;;;;;;;1.85;69.68;99372.12;5280349;27;20082;-85
2021/01/31 09:56:56;;;;;;;57.75;29.45;;;;;;;0.82;72.79;99369.72;5272515;27;20068;-86
2021/01/31 09:59:34;;;;;;;46.33;24.90;;;;;;;1.34;72.11;99375.75;5281086;27;20057;-86
2021/01/31 10:24:32;;;;;;;37.88;23.40;;;;;;;2.59;68.28;99376.44;5256680;27;20059;-85
2021/01/31 10:27:26;;;;;;;28.92;18.40;;;;;;;1.79;69.96;99372.03;5257459;27;20065;-85
2021/01/31 10:29:54;;;;;;;27.27;17.83;;;;;;;2.82;67.36;99379.22;5235332;27;20075;-86
2021/01/31 10:32:39;;;;;;;25.40;16.35;;;;;;;2.91;66.87;99375.84;5257309;27;20881;-84
2021/01/31 10:35:29;;;;;;;27.95;17.75;;;;;;;3.06;65.67;99375.09;5258078;27;20050;-86
2021/01/31 10:38:20;;;;;;;36.78;22.90;;;;;;;2.59;68.31;99367.75;5255355;27;20079;-86
2021/01/31 10:40:46;;;;;;;35.03;22.50;;;;;;;1.93;69.52;99370.50;5250422;27;20061;-84
2021/01/31 10:43:12;;;;;;;32.85;19.70;;;;;;;2.19;69.39;99367.34;5259375;27;20080;-86
2021/01/31 10:45:38;;;;;;;26.58;18.12;;;;;;;1.73;70.40;99367.66;5259003;27;20702;-86
2021/01/31 10:48:05;;;;;;;37.95;24.33;;;;;;;1.72;70.80;99367.66;5257670;27;20062;-87
2021/01/31 10:50:32;;;;;;;36.00;22.33;;;;;;;2.19;70.06;99364.75;5256008;27;20108;-87
2021/01/31 10:52:59;;;;;;;34.70;21.92;;;;;;;2.20;69.41;99366.50;5256242;27;20081;-88
2021/01/31 10:55:25;;;;;;;44.88;28.20;;;;;;;1.61;71.15;99371.81;5256362;27;20060;-86
2021/01/31 10:57:52;;;;;;;35.45;22.15;;;;;;;2.66;68.14;99365.25;5255784;27;20112;-85
2021/01/31 11:00:19;;;;;;;36.55;23.80;;;;;;;2.07;68.64;99375.84;5257093;27;20096;-87
2021/01/31 11:02:46;;;;;;;31.37;20.45;;;;;;;2.77;67.37;99370.56;5255994;27;20112;-86
2021/01/31 11:05:13;;;;;;;26.50;18.02;;;;;;;2.13;68.58;99362.09;5255422;27;20475;-86
2021/01/31 11:07:40;;;;;;;30.80;22.27;;;;;;;2.70;67.92;99371.34;5255657;27;20103;-86
2021/01/31 11:10:07;;;;;;;33.03;19.87;;;;;;;2.28;69.06;99370.03;5254957;27;20061;-85
2021/01/31 11:12:34;;;;;;;28.45;18.75;;;;;;;2.66;66.39;99366.97;5245035;27;20070;-87
2021/01/31 11:15:00;;;;;;;33.67;21.70;;;;;;;1.91;69.80;99377.41;5255922;27;20074;-85
2021/01/31 11:17:26;;;;;;;32.20;20.33;;;;;;;2.27;67.90;99376.97;5255657;27;20117;-85
2021/01/31 11:19:53;;;;;;;27.13;17.45;;;;;;;2.56;68.19;99371.22;5256124;27;20131;-85
2021/01/31 11:22:19;;;;;;;31.42;19.15;;;;;;;2.21;67.94;99370.84;5255350;27;20137;-85
2021/01/31 11:24:46;;;;;;;32.70;20.23;;;;;;;2.81;67.93;99372.31;5256309;27;20073;-86
2021/01/31 11:27:13;;;;;;;31.05;21.48;;;;;;;2.40;68.32;99365.00;5256691;27;20058;-86
2021/01/31 11:29:39;;;;;;;35.33;21.45;;;;;;;2.82;67.54;99365.38;5255798;27;20086;-86
2021/01/31 11:32:05;;;;;;;32.28;20.30;;;;;;;2.58;67.70;99371.22;5256676;27;20062;-85
2021/01/31 11:34:32;;;;;;;32.40;21.00;;;;;;;2.71;67.13;99373.09;5254792;27;20070;-86
2021/01/31 11:36:59;;;;;;;34.58;24.05;;;;;;;2.34;68.63;99367.53;5256058;27;20442;-86
2021/01/31 11:39:25;;;;;;;32.83;21.77;;;;;;;2.98;66.75;99367.28;5256703;27;20130;-86
2021/01/31 11:41:52;;;;;;;38.83;25.52;;;;;;;2.52;68.68;99353.00;5254464;27;20078;-85
2021/01/31 11:44:19;;;;;;;35.72;22.37;;;;;;;2.82;67.77;99365.38;5256005;27;20317;-86
2021/01/31 11:46:46;;;;;;;41.75;26.27;;;;;;;2.06;69.70;99363.75;5256459;27;20058;-84
2021/01/31 11:49:12;;;;;;;38.08;24.85;;;;;;;2.12;70.89;99360.34;5256443;27;20108;-85
2021/01/31 11:51:39;;;;;;;45.08;29.92;;;;;;;1.72;71.14;99365.06;5255878;27;20085;-84
2021/01/31 11:54:05;;;;;;;39.67;25.15;;;;;;;2.27;70.32;99360.53;5255872;27;20067;-83
2021/01/31 11:56:33;;;;;;;46.55;30.17;;;;;;;1.49;71.72;99360.41;5255543;27;20061;-86
2021/01/31 11:59:00;;;;;;;47.60;30.98;;;;;;;1.78;72.18;99365.12;5255785;27;20139;-86
2021/01/31 12:01:26;;;;;;;52.47;30.17;;;;;;;2.15;71.38;99353.50;5255592;27;20060;-86
2021/01/31 12:03:53;;;;;;;49.13;29.33;;;;;;;2.63;69.09;99338.44;5255196;27;20054;-86
2021/01/31 12:06:19;;;;;;;41.30;26.02;;;;;;;2.51;68.67;99341.78;5255430;27;20081;-86
2021/01/31 12:08:46;;;;;;;35.72;22.98;;;;;;;2.30;68.59;99339.84;5255701;27;20679;-85
2021/01/31 12:11:12;;;;;;;39.65;25.17;;;;;;;1.74;70.84;99345.25;5255679;27;20050;-86
2021/01/31 12:13:38;;;;;;;37.55;26.10;;;;;;;2.54;68.86;99343.53;5255819;27;20104;-85
2021/01/31 12:16:05;;;;;;;48.75;29.23;;;;;;;2.09;69.27;99349.94;5255808;27;20058;-87
2021/01/31 12:18:31;;;;;;;40.15;27.20;;;;;;;2.22;69.40;99354.44;5255821;27;20072;-86
2021/01/31 12:20:58;;;;;;;42.67;28.12;;;;;;;2.66;67.87;99341.03;5254211;27;20133;-85
2021/01/31 12:23:24;;;;;;;37.22;23.55;;;;;;;2.50;67.70;99346.09;5255542;27;20078;-88
2021/01/31 12:25:51;;;;;;;37.03;24.23;;;;;;;2.73;66.91;99343.69;5255533;27;20061;-85
2021/01/31 12:28:19;;;;;;;45.12;25.75;;;;;;;2.57;66.25;99341.84;5255860;27;20077;-86
2021/01/31 12:30:45;;;;;;;44.95;29.55;;;;;;;2.95;66.48;99336.97;5256081;27;20456;-86
2021/01/31 12:33:12;;;;;;;42.08;27.00;;;;;;;2.72;65.70;99331.59;5254817;27;20664;-87
2021/01/31 12:35:38;;;;;;;29.98;19.92;;;;;;;2.74;66.19;99336.81;5256164;27;21080;-86
2021/01/31 12:38:05;;;;;;;24.50;16.98;;;;;;;2.35;65.35;99334.69;5256394;27;20057;-86
2021/01/31 12:40:32;;;;;;;23.25;15.27;;;;;;;2.22;66.37;99337.16;5256511;27;20064;-86
2021/01/31 12:43:00;;;;;;;21.70;12.70;;;;;;;2.32;65.42;99327.75;5256275;27;20073;-86
2021/01/31 12:45:27;;;;;;;19.73;13.32;;;;;;;2.17;63.37;99335.38;5255795;27;20104;-85
2021/01/31 12:47:54;;;;;;;19.42;12.80;;;;;;;1.75;65.24;99329.69;5257371;27;20030;-87
2021/01/31 12:50:24;;;;;;;25.23;14.18;;;;;;;2.43;63.68;99310.56;5255639;27;20058;-84
2021/01/31 12:52:51;;;;;;;30.70;21.00;;;;;;;2.09;64.41;99305.91;5257585;27;20412;-87
2021/01/31 13:17:43;;;;;;;33.35;21.80;;;;;;;2.80;64.32;99273.72;5277732;27;20076;-87
2021/01/31 13:20:14;;;;;;;30.33;19.30;;;;;;;3.21;63.54;99279.19;5278026;27;20119;-86
2021/01/31 13:22:41;;;;;;;35.30;22.98;;;;;;;2.88;63.82;99278.13;5279166;27;20076;-86
2021/01/31 13:25:08;;;;;;;29.60;18.92;;;;;;;3.05;63.68;99266.97;5277866;27;20691;-86
2021/01/31 13:27:35;;;;;;;36.45;22.00;;;;;;;3.80;61.32;99262.16;5279355;27;20105;-85
2021/01/31 13:30:02;;;;;;;35.33;22.27;;;;;;;3.59;61.60;99266.41;5279306;27;20071;-86
2021/01/31 13:32:29;;;;;;;45.45;26.17;;;;;;;2.95;63.28;99277.28;5278631;27;20117;-86
2021/01/31 13:34:55;;;;;;;30.27;20.80;;;;;;;3.23;62.95;99274.88;5278447;27;20051;-86
2021/01/31 13:37:22;;;;;;;33.97;22.30;;;;;;;3.82;61.49;99270.81;5272507;27;159309;-84
2021/01/31 13:39:48;;;;;;;41.28;27.80;;;;;;;3.58;61.47;99271.59;5279134;27;20117;-86
2021/01/31 13:42:14;;;;;;;30.90;20.08;;;;;;;3.47;62.51;99268.97;5277915;27;20117;-86
2021/01/31 13:44:42;;;;;;;37.17;20.98;;;;;;;3.31;60.97;99282.69;5278171;27;20079;-87
2021/01/31 13:47:08;;;;;;;33.45;20.67;;;;;;;2.71;62.75;99280.59;5258658;27;20118;-84
2021/01/31 13:49:34;;;;;;;33.70;19.80;;;;;;;2.62;64.02;99284.84;5278524;27;20117;-86
2021/01/31 13:52:00;;;;;;;30.17;19.73;;;;;;;2.68;63.14;99279.69;5258568;27;20121;-86
2021/01/31 13:54:27;;;;;;;33.17;21.92;;;;;;;3.17;62.23;99277.41;5277270;27;20456;-86
2021/01/31 13:56:53;;;;;;;32.83;18.75;;;;;;;2.90;63.54;99280.72;5277389;27;20133;-86
2021/01/31 13:59:19;;;;;;;27.52;17.08;;;;;;;2.41;63.09;99283.78;5278536;27;20080;-87
2021/01/31 14:01:49;;;;;;;28.37;18.93;;;;;;;2.67;62.64;99285.72;5277192;27;20128;-85
2021/01/31 14:04:20;;;;;;;37.50;22.87;;;;;;;2.57;62.70;99282.19;5278084;27;20026;-86
2021/01/31 14:06:47;;;;;;;33.53;21.17;;;;;;;2.81;62.93;99272.88;5277853;27;20073;-85
2021/01/31 14:09:14;;;;;;;37.67;24.60;;;;;;;3.00;62.15;99266.97;5277773;27;20125;-85
2021/01/31 14:11:41;;;;;;;26.92;17.58;;;;;;;2.82;61.96;99261.63;5277810;27;20068;-86
2021/01/31 14:14:07;;;;;;;28.50;18.87;;;;;;;2.81;61.31;99262.50;5277977;27;20400;-85
2021/01/31 14:16:34;;;;;;;29.15;18.67;;;;;;;2.78;62.76;99265.06;5278678;27;20077;-87
2021/01/31 14:19:01;;;;;;;25.30;16.92;;;;;;;3.13;61.95;99263.56;5277480;27;20053;-87
2021/01/31 14:21:32;;;;;;;26.33;15.55;;;;;;;3.17;62.06;99267.03;5278522;27;20461;-86
2021/01/31 14:23:59;;;;;;;30.95;20.73;;;;;;;2.64;61.48;99265.81;5279463;27;20095;-86
2021/01/31 14:26:25;;;;;;;26.55;16.98;;;;;;;2.62;63.46;99266.69;5279659;27;20069;-83
2021/01/31 14:28:52;;;;;;;25.15;18.00;;;;;;;2.57;62.03;99266.63;5278216;27;20069;-87
2021/01/31 14:31:18;;;;;;;24.67;16.58;;;;;;;2.54;62.68;99264.00;5279094;27;20108;-86
2021/01/31 14:34:04;;;;;;;33.40;22.13;;;;;;;3.01;61.17;99266.09;5278794;27;20058;-86
2021/01/31 14:36:31;;;;;;;28.25;18.52;;;;;;;2.78;61.85;99272.84;5278120;27;20054;-86
2021/01/31 14:38:58;;;;;;;29.25;17.85;;;;;;;3.29;60.80;99266.25;5278149;27;20113;-86
2021/01/31 14:41:24;;;;;;;36.17;23.12;;;;;;;3.44;59.83;99265.44;5277471;27;20048;-86
2021/01/31 14:43:52;;;;;;;27.10;17.95;;;;;;;3.99;58.92;99260.47;5277607;27;20702;-86
2021/01/31 14:46:19;;;;;;;38.03;24.50;;;;;;;3.46;59.91;99263.75;5277757;27;20380;-86
2021/01/31 14:48:45;;;;;;;32.33;20.77;;;;;;;4.73;57.26;99262.25;5277967;27;20095;-86
2021/01/31 14:51:12;;;;;;;30.85;19.62;;;;;;;4.54;56.87;99258.81;5278489;27;20057;-86
2021/01/31 14:53:39;;;;;;;31.05;21.42;;;;;;;4.42;57.92;99251.00;5258892;27;20125;-87
2021/01/31 14:56:06;;;;;;;31.85;22.67;;;;;;;4.47;58.81;99251.00;5277846;27;20057;-86
2021/01/31 14:58:36;;;;;;;36.38;24.33;;;;;;;3.77;60.46;99252.63;5278036;27;20065;-86
2021/01/31 15:01:04;;;;;;;40.33;24.52;;;;;;;4.53;57.85;99257.09;5277303;27;20067;-86
2021/01/31 15:03:30;;;;;;;35.78;25.33;;;;;;;4.45;57.08;99248.41;5277802;27;20064;-86
2021/01/31 15:05:56;;;;;;;55.42;32.72;;;;;;;4.01;58.67;99251.81;5276793;27;20411;-86
2021/01/31 15:08:24;;;;;;;48.87;31.42;;;;;;;3.35;60.75;99251.59;5278723;27;20419;-86
2021/01/31 15:10:50;;;;;;;43.35;27.45;;;;;;;3.17;61.56;99254.06;5278333;27;20118;-87
2021/01/31 15:13:17;;;;;;;40.10;25.25;;;;;;;3.94;60.40;99246.59;5278483;27;20065;-85
2021/01/31 15:15:46;;;;;;;43.38;27.25;;;;;;;2.91;62.51;99259.97;5277221;27;20117;-85
2021/01/31 15:18:13;;;;;;;38.97;25.62;;;;;;;2.50;64.00;99257.94;5279246;27;20082;-86
2021/01/31 15:20:39;;;;;;;42.62;26.27;;;;;;;3.34;62.03;99254.16;5279616;27;20399;-86
2021/01/31 15:23:06;;;;;;;35.88;23.98;;;;;;;3.91;60.07;99250.03;5280381;27;20063;-85
2021/01/31 15:25:33;;;;;;;43.58;29.15;;;;;;;3.73;60.64;99250.00;5260773;27;20034;-85
2021/01/31 15:28:00;;;;;;;76.35;45.80;;;;;;;3.79;59.73;99247.41;5260111;27;20062;-86
2021/01/31 15:30:33;;;;;;;90.07;48.15;;;;;;;4.49;58.51;99251.88;5278213;27;20419;-86
2021/01/31 15:33:00;;;;;;;103.87;61.92;;;;;;;4.91;57.42;99245.78;5279361;27;20415;-87
2021/01/31 15:35:27;;;;;;;100.87;60.47;;;;;;;4.91;56.84;99245.78;5279126;27;20125;-86
2021/01/31 15:37:54;;;;;;;79.57;51.63;;;;;;;4.44;57.51;99256.19;5279249;27;20061;-86
2021/01/31 15:40:22;;;;;;;39.17;26.70;;;;;;;4.41;58.04;99251.88;5277797;27;20124;-86
2021/01/31 15:42:49;;;;;;;39.30;28.30;;;;;;;4.04;58.05;99248.34;5278743;27;20098;-85
2021/01/31 15:45:19;;;;;;;40.58;29.20;;;;;;;4.27;56.64;99251.88;5278163;27;20037;-86
2021/01/31 15:47:45;;;;;;;41.67;29.95;;;;;;;4.54;55.86;99258.81;5280001;27;20185;-87
2021/01/31 15:50:13;;;;;;;41.05;27.95;;;;;;;4.60;55.93;99270.09;5280603;27;20146;-86
2021/01/31 15:52:41;;;;;;;49.88;34.88;;;;;;;4.67;55.53;99256.19;5279792;27;20158;-86
2021/01/31 15:55:08;;;;;;;63.03;38.85;;;;;;;4.59;55.86;99250.12;5279976;27;20404;-86
2021/01/31 15:57:35;;;;;;;55.97;41.22;;;;;;;4.47;56.20;99253.59;5278912;27;20076;-86
2021/01/31 16:00:10;;;;;;;59.88;39.75;;;;;;;4.22;56.84;99250.12;5278540;27;20029;-86
2021/01/31 16:02:37;;;;;;;79.75;49.88;;;;;;;3.81;58.48;99245.69;5277293;27;20057;-85
2021/01/31 16:05:14;;;;;;;73.40;50.92;;;;;;;4.30;56.92;99257.06;5277127;27;20062;-87
2021/01/31 16:07:40;;;;;;;63.78;44.67;;;;;;;4.41;56.59;99262.28;5277639;27;20053;-86
2021/01/31 16:10:07;;;;;;;93.32;64.20;;;;;;;4.49;57.34;99264.88;5277550;27;20053;-85
2021/01/31 16:12:34;;;;;;;90.60;61.42;;;;;;;4.63;56.96;99257.09;5278572;27;20055;-85
2021/01/31 16:15:00;;;;;;;96.10;60.58;;;;;;;4.83;57.29;99262.28;5278975;27;20076;-86
2021/01/31 16:17:27;;;;;;;81.03;52.47;;;;;;;4.89;56.70;99262.28;5278507;27;20906;-86
2021/01/31 16:19:53;;;;;;;82.28;53.38;;;;;;;4.81;56.36;99261.41;5277776;27;20117;-86
2021/01/31 16:22:20;;;;;;;71.25;46.72;;;;;;;4.72;56.17;99265.75;5279463;27;20704;-86
2021/01/31 16:24:46;;;;;;;71.07;45.75;;;;;;;4.71;55.75;99271.81;5279474;27;20085;-86
2021/01/31 16:27:13;;;;;;;57.80;36.70;;;;;;;4.62;55.83;99282.25;5279106;27;20113;-85
2021/01/31 16:29:39;;;;;;;66.53;39.85;;;;;;;4.28;56.31;99271.78;5278340;27;20061;-86
2021/01/31 16:32:06;;;;;;;66.20;42.30;;;;;;;4.18;57.26;99270.06;5278102;27;20121;-85
2021/01/31 16:34:32;;;;;;;63.87;41.30;;;;;;;4.19;56.70;99270.91;5277332;27;20058;-86
2021/01/31 16:37:00;;;;;;;96.00;60.05;;;;;;;4.26;56.95;99283.91;5277374;27;20823;-86
2021/01/31 16:39:27;;;;;;;82.62;54.70;;;;;;;4.35;56.64;99288.25;5277976;27;20463;-85
2021/01/31 16:41:53;;;;;;;75.78;50.22;;;;;;;4.24;56.84;99283.06;5276251;27;20090;-86
2021/01/31 16:44:19;;;;;;;76.00;50.15;;;;;;;4.19;57.20;99287.38;5277695;27;20058;-86
2021/01/31 16:46:46;;;;;;;83.78;54.13;;;;;;;4.34;56.87;99286.53;5277377;27;20054;-85
2021/01/31 16:49:12;;;;;;;64.45;41.28;;;;;;;4.23;57.33;99294.31;5278127;27;20074;-85
2021/01/31 16:51:38;;;;;;;57.00;36.45;;;;;;;3.72;58.33;99295.88;5276420;27;20124;-85
2021/01/31 16:54:05;;;;;;;58.38;38.17;;;;;;;3.95;58.12;99289.91;5257916;27;21371;-85
2021/01/31 16:56:32;;;;;;;59.72;37.78;;;;;;;4.17;57.49;99291.69;5277801;27;20071;-86
2021/01/31 16:58:58;;;;;;;61.13;37.50;;;;;;;4.30;57.13;99293.47;5278350;27;20822;-85
2021/01/31 17:01:34;;;;;;;55.47;37.22;;;;;;;4.40;56.90;99289.12;5278556;27;20129;-86
2021/01/31 17:04:01;;;;;;;51.90;33.20;;;;;;;4.48;56.79;99281.34;5277911;27;20057;-84
2021/01/31 17:06:28;;;;;;;52.28;34.97;;;;;;;4.42;56.62;99286.56;5279608;27;20061;-86
2021/01/31 17:08:55;;;;;;;63.92;39.00;;;;;;;3.99;58.25;99289.06;5279502;27;20435;-85
2021/01/31 17:11:22;;;;;;;52.55;33.67;;;;;;;4.26;57.52;99290.84;5278902;27;20044;-84
2021/01/31 17:13:48;;;;;;;58.47;36.47;;;;;;;4.10;57.84;99297.75;5278125;27;20030;-83
2021/01/31 17:16:17;;;;;;;60.90;35.97;;;;;;;3.78;59.20;99287.25;5278394;27;20076;-87
2021/01/31 17:18:43;;;;;;;64.00;39.33;;;;;;;4.06;58.02;99281.28;5278566;27;20439;-85
2021/01/31 17:21:10;;;;;;;63.00;38.80;;;;;;;3.77;59.06;99288.12;5278378;27;20057;-85
2021/01/31 17:23:37;;;;;;;56.78;35.83;;;;;;;4.03;58.71;99288.19;5278544;27;20062;-84
2021/01/31 17:26:03;;;;;;;46.88;32.97;;;;;;;4.15;58.27;99285.66;5279243;27;20121;-85
2021/01/31 17:28:30;;;;;;;58.78;34.58;;;;;;;4.17;58.12;99294.28;5278671;27;20054;-85
2021/01/31 17:30:56;;;;;;;65.32;37.97;;;;;;;3.72;59.67;99289.84;5278689;27;20097;-86
2021/01/31 17:33:23;;;;;;;64.37;41.75;;;;;;;3.64;60.45;99294.97;5278349;27;20069;-85
2021/01/31 17:35:49;;;;;;;60.58;40.20;;;;;;;3.81;59.72;99285.53;5278277;27;20056;-84
2021/01/31 17:38:16;;;;;;;60.70;39.33;;;;;;;3.31;61.40;99296.53;5278240;27;20425;-85
2021/01/31 17:40:42;;;;;;;62.88;40.80;;;;;;;2.59;64.16;99300.34;5278238;27;20053;-85
2021/01/31 17:43:09;;;;;;;79.18;47.62;;;;;;;2.89;63.11;99289.38;5278279;27;20097;-85
2021/01/31 17:45:37;;;;;;;82.30;46.53;;;;;;;3.28;61.77;99278.34;5276685;27;20072;-85
2021/01/31 17:48:05;;;;;;;73.68;42.67;;;;;;;3.15;62.02;99284.34;5277561;27;20061;-85
2021/01/31 17:50:32;;;;;;;91.18;55.17;;;;;;;3.00;62.74;99273.84;5277585;27;20042;-85
2021/01/31 17:52:59;;;;;;;64.68;39.22;;;;;;;2.77;63.63;99278.91;5275905;27;20439;-86
2021/01/31 17:55:26;;;;;;;45.30;30.70;;;;;;;2.42;65.02;99280.34;5277961;27;20125;-85
2021/01/31 17:57:55;;;;;;;40.50;29.90;;;;;;;2.28;65.82;99274.16;5278936;27;20053;-85
2021/01/31 18:00:26;;;;;;;53.00;32.95;;;;;;;2.39;65.21;99272.53;5278980;27;20057;-84
2021/01/31 18:02:53;;;;;;;58.10;36.30;;;;;;;2.12;66.43;99273.12;5278129;27;20077;-85
2021/01/31 18:05:23;;;;;;;49.00;33.05;;;;;;;1.81;67.48;99277.09;5278788;27;20062;-84
2021/01/31 18:08:02;;;;;;;59.13;36.95;;;;;;;2.04;66.88;99274.78;5277605;27;20076;-85
2021/01/31 18:10:28;;;;;;;56.78;35.80;;;;;;;1.47;68.40;99273.22;5279058;27;20132;-85
2021/01/31 18:12:55;;;;;;;68.57;38.67;;;;;;;2.03;66.49;99266.12;5278458;27;20061;-86
2021/01/31 18:15:23;;;;;;;47.67;30.10;;;;;;;1.84;67.56;99253.84;5276779;27;20109;-85
2021/01/31 18:17:50;;;;;;;45.03;28.95;;;;;;;1.11;69.50;99253.78;5278160;27;20054;-85
2021/01/31 18:20:18;;;;;;;48.58;30.42;;;;;;;1.16;70.40;99251.28;5277846;27;20050;-85
2021/01/31 18:22:45;;;;;;;48.97;30.05;;;;;;;1.43;69.01;99249.03;5278039;27;20061;-85
2021/01/31 18:25:13;;;;;;;47.13;29.80;;;;;;;1.81;66.65;99235.66;5279859;27;20034;-84
2021/01/31 18:27:40;;;;;;;58.13;35.97;;;;;;;1.92;66.32;99236.66;5280247;27;20106;-83
2021/01/31 18:30:10;;;;;;;53.33;33.13;;;;;;;2.01;66.19;99234.16;5278687;27;20053;-85
2021/01/31 18:32:36;;;;;;;54.33;34.33;;;;;;;2.24;64.92;99238.69;5281350;27;20084;-85
2021/01/31 18:35:03;;;;;;;60.60;35.92;;;;;;;2.25;64.67;99241.28;5280527;27;20078;-82
2021/01/31 18:37:29;;;;;;;60.58;37.88;;;;;;;1.52;66.90;99237.94;5280590;27;20053;-84
2021/01/31 18:39:56;;;;;;;51.28;32.72;;;;;;;2.08;65.17;99244.56;5280878;27;20586;-85
2021/01/31 18:42:22;;;;;;;74.20;45.70;;;;;;;2.34;64.02;99248.28;5280922;27;20058;-84
2021/01/31 18:44:48;;;;;;;66.47;42.30;;;;;;;1.80;66.70;99246.91;5279809;27;20080;-84
2021/01/31 18:47:15;;;;;;;71.12;45.83;;;;;;;1.90;66.81;99238.34;5281220;27;20087;-84
2021/01/31 18:49:41;;;;;;;59.05;37.55;;;;;;;1.76;67.21;99245.09;5281273;27;20552;-85
2021/01/31 19:17:52;;;;;;;88.32;51.25;;;;;;;1.72;67.32;99235.56;5265434;26;20069;-83
2021/01/31 19:20:21;;;;;;;83.28;51.42;;;;;;;1.55;67.97;99235.38;5261170;27;20108;-84
2021/01/31 19:22:48;;;;;;;96.68;58.25;;;;;;;1.33;68.42;99234.25;5260317;27;20401;-84
2021/01/31 19:25:15;;;;;;;95.12;56.85;;;;;;;1.58;67.65;99233.69;5261547;27;20153;-85
2021/01/31 19:27:44;;;;;;;76.43;45.15;;;;;;;1.57;67.56;99224.19;5260540;27;20174;-84
2021/01/31 19:30:13;;;;;;;82.47;47.65;;;;;;;1.03;69.12;99225.25;5262019;27;20442;-84
2021/01/31 19:32:44;;;;;;;78.78;44.58;;;;;;;1.50;67.81;99219.81;5262062;27;20045;-84
2021/01/31 19:35:11;;;;;;;71.30;45.47;;;;;;;1.30;68.47;99216.97;5260901;27;20752;-83
2021/01/31 19:37:38;;;;;;;78.00;45.80;;;;;;;0.98;69.18;99219.12;5260602;27;20106;-85
2021/01/31 19:40:07;;;;;;;62.67;39.03;;;;;;;1.38;68.31;99219.62;5260729;27;20112;-84
2021/01/31 19:42:35;;;;;;;64.75;39.25;;;;;;;1.40;67.87;99214.50;5261612;27;20029;-84
2021/01/31 19:45:04;;;;;;;61.85;37.42;;;;;;;1.28;67.59;99220.38;5261274;27;20062;-84
2021/01/31 19:47:36;;;;;;;56.90;36.03;;;;;;;1.49;67.27;99217.19;5261419;27;20092;-84
2021/01/31 19:50:05;;;;;;;58.85;36.75;;;;;;;1.38;67.45;99217.03;5261253;27;20056;-84
2021/01/31 19:52:32;;;;;;;;;;;;;;;1.40;67.01;99211.91;5261221;27;20026;-85
2021/01/31 19:54:58;;;;;;;60.05;34.88;;;;;;;1.17;68.47;99211.59;5242136;27;20030;-85
2021/01/31 19:57:26;;;;;;;51.40;33.60;;;;;;;1.21;67.94;99218.59;5259827;27;20121;-82
2021/01/31 19:59:52;;;;;;;54.50;31.75;;;;;;;0.76;69.70;99210.19;5262117;27;20064;-84
2021/01/31 20:02:20;;;;;;;52.42;32.47;;;;;;;0.33;72.00;99211.28;5261536;27;20041;-83
2021/01/31 20:04:47;;;;;;;51.72;31.70;;;;;;;0.49;71.32;99202.91;5261414;27;20031;-84
2021/01/31 20:07:14;;;;;;;59.75;36.08;;;;;;;0.04;72.59;99206.47;5261984;27;20081;-84
2021/01/31 20:09:41;;;;;;;55.53;33.95;;;;;;;0.14;73.14;99208.34;5261408;27;20306;-83
2021/01/31 20:12:09;;;;;;;58.65;34.70;;;;;;;-0.09;73.81;99204.50;5262642;27;20345;-84
2021/01/31 20:14:37;;;;;;;56.33;33.40;;;;;;;0.34;72.23;99197.50;5262544;27;20170;-84
2021/01/31 20:17:04;;;;;;;62.40;33.90;;;;;;;0.05;73.52;99199.59;5262714;27;20116;-83
2021/01/31 20:19:31;;;;;;;55.40;32.28;;;;;;;-0.42;75.09;99197.88;5242923;27;20036;-85
2021/01/31 20:21:58;;;;;;;52.17;30.60;;;;;;;-0.47;75.40;99205.56;5261700;27;20061;-84
2021/01/31 20:24:25;;;;;;;52.92;32.03;;;;;;;-0.43;75.07;99188.41;5261618;27;20061;-84
2021/01/31 20:26:53;;;;;;;56.93;33.13;;;;;;;-0.58;75.79;99193.28;5260309;27;20048;-84
2021/01/31 20:29:20;;;;;;;57.88;32.72;;;;;;;-0.39;75.49;99187.63;5261014;27;20037;-85
2021/01/31 20:31:47;;;;;;;52.40;30.58;;;;;;;-0.24;74.61;99187.03;5242810;27;20060;-85
2021/01/31 20:34:13;;;;;;;57.55;33.95;;;;;;;-0.28;74.18;99188.69;5261797;27;20448;-84
2021/01/31 20:36:40;;;;;;;53.17;31.45;;;;;;;-0.12;73.80;99194.13;5261317;27;20069;-85
2021/01/31 20:39:07;;;;;;;54.70;32.28;;;;;;;0.23;72.46;99205.91;5262821;27;20078;-85
2021/01/31 20:41:33;;;;;;;53.80;30.65;;;;;;;0.31;72.27;99206.06;5263886;27;20050;-84
2021/01/31 20:44:00;;;;;;;47.17;31.20;;;;;;;0.41;71.32;99213.12;5263765;27;20030;-85
2021/01/31 20:46:27;;;;;;;55.85;31.50;;;;;;;0.06;72.58;99220.28;5262869;27;20088;-85
2021/01/31 20:48:55;;;;;;;52.40;31.58;;;;;;;0.33;71.63;99214.72;5261256;27;20027;-84
2021/01/31 20:51:21;;;;;;;49.70;29.48;;;;;;;0.26;72.29;99214.56;5262277;27;20109;-85
2021/01/31 20:53:49;;;;;;;50.50;31.50;;;;;;;0.26;72.10;99227.50;5262041;27;20030;-84
2021/01/31 20:56:19;;;;;;;52.08;30.05;;;;;;;0.46;71.02;99228.69;5243266;27;20051;-84
2021/01/31 20:58:46;;;;;;;51.50;30.70;;;;;;;0.87;69.40;99218.09;5261813;27;20060;-85
2021/01/31 21:01:13;;;;;;;51.03;29.95;;;;;;;1.30;67.84;99226.44;5261987;27;20081;-85
2021/01/31 21:03:39;;;;;;;55.38;31.92;;;;;;;1.34;67.30;99223.91;5261665;27;20070;-85
2021/01/31 21:06:06;;;;;;;46.13;28.38;;;;;;;1.20;67.20;99233.22;5260599;27;20073;-84
2021/01/31 21:08:33;;;;;;;47.53;27.50;;;;;;;1.68;65.85;99244.16;5260496;27;20027;-85
2021/01/31 21:10:59;;;;;;;45.28;28.70;;;;;;;1.83;65.24;99238.28;5261081;27;20125;-85